createdAt,value
2024-02-14T00:01:54.979Z,65.48
2024-02-14T00:04:24.739Z,65.39
2024-02-14T00:06:54.838Z,66.17
2024-02-14T00:09:27.470Z,65.46
2024-02-14T00:11:57.239Z,65.37
2024-02-14T00:14:26.924Z,65.47
2024-02-14T00:16:57.208Z,65.34
2024-02-14T00:19:26.969Z,65.00
2024-02-14T00:21:56.656Z,64.86
2024-02-14T00:24:29.895Z,64.32
2024-02-14T00:27:01.842Z,65.23
2024-02-14T00:29:31.726Z,64.62
2024-02-14T00:32:01.479Z,64.28
2024-02-14T00:34:31.501Z,64.17
2024-02-14T00:37:01.192Z,64.02
2024-02-14T00:39:33.418Z,63.63
2024-02-14T00:42:03.202Z,63.79
2024-02-14T00:44:32.970Z,63.87
2024-02-14T00:47:03.785Z,63.76
2024-02-14T00:49:33.634Z,63.69
2024-02-14T00:52:03.353Z,63.91
2024-02-14T00:54:36.231Z,64.15
2024-02-14T00:57:06.518Z,64.59
2024-02-14T00:59:36.208Z,64.72
2024-02-14T01:02:06.016Z,65.14
2024-02-14T01:04:37.383Z,64.82
2024-02-14T01:07:07.358Z,64.63
2024-02-14T01:09:39.931Z,64.38
2024-02-14T01:12:09.968Z,63.58
2024-02-14T01:14:39.650Z,64.06
2024-02-14T01:17:09.533Z,64.09
2024-02-14T01:19:39.239Z,64.26
2024-02-14T01:22:10.130Z,64.57
2024-02-14T01:24:44.035Z,64.15
2024-02-14T01:27:13.704Z,64.05
2024-02-14T01:29:43.768Z,64.15
2024-02-14T01:32:13.455Z,63.89
2024-02-14T01:34:43.822Z,64.13
2024-02-14T01:37:13.614Z,64.08
2024-02-14T01:39:45.957Z,63.54
2024-02-14T01:42:15.804Z,63.46
2024-02-14T01:44:45.468Z,63.88
2024-02-14T01:47:15.142Z,63.48
2024-02-14T01:49:45.732Z,63.22
2024-02-14T01:52:15.517Z,63.28
2024-02-14T01:54:47.809Z,63.37
2024-02-14T01:57:17.539Z,63.02
2024-02-14T01:59:47.242Z,62.96
2024-02-14T02:02:17.636Z,62.97
2024-02-14T02:04:47.950Z,62.79
2024-02-14T02:07:20.193Z,62.53
2024-02-14T02:09:52.520Z,62.23
2024-02-14T02:12:22.173Z,62.63
2024-02-14T02:14:51.843Z,62.42
2024-02-14T02:17:22.391Z,62.90
2024-02-14T02:19:52.065Z,62.47
2024-02-14T02:22:21.744Z,62.05
2024-02-14T02:24:54.052Z,62.13
2024-02-14T02:27:23.670Z,62.54
2024-02-14T02:29:53.305Z,62.77
2024-02-14T02:32:22.997Z,62.92
2024-02-14T02:34:52.745Z,62.81
2024-02-14T02:37:22.401Z,62.18
2024-02-14T02:39:55.159Z,62.12
2024-02-14T02:42:24.859Z,63.33
2024-02-14T02:44:54.800Z,62.95
2024-02-14T02:47:24.501Z,62.96
2024-02-14T02:49:54.249Z,62.72
2024-02-14T02:52:23.917Z,62.62
2024-02-14T02:54:56.167Z,62.72
2024-02-14T02:57:27.936Z,62.48
2024-02-14T02:59:59.307Z,62.44
2024-02-14T03:02:29.432Z,62.89
2024-02-14T03:05:00.472Z,62.79
2024-02-14T03:07:30.012Z,63.16
2024-02-14T03:10:02.290Z,63.10
2024-02-14T03:12:33.050Z,63.25
2024-02-14T03:15:02.989Z,62.88
2024-02-14T03:17:33.120Z,63.37
2024-02-14T03:20:05.146Z,63.57
2024-02-14T03:22:36.756Z,64.53
2024-02-14T03:25:09.309Z,64.41
2024-02-14T03:27:38.942Z,64.40
2024-02-14T03:30:10.485Z,64.97
2024-02-14T03:32:40.341Z,65.37
2024-02-14T03:35:11.928Z,65.25
2024-02-14T03:37:42.049Z,64.58
2024-02-14T03:40:14.957Z,64.46
2024-02-14T03:42:44.608Z,64.76
2024-02-14T03:45:14.769Z,64.28
2024-02-14T03:47:44.536Z,64.15
2024-02-14T03:50:14.328Z,63.90
2024-02-14T03:52:44.016Z,63.66
2024-02-14T03:55:19.125Z,63.74
2024-02-14T03:57:49.773Z,64.31
2024-02-14T04:00:20.074Z,64.58
2024-02-14T04:02:52.025Z,64.72
2024-02-14T04:05:21.673Z,64.55
2024-02-14T04:07:53.690Z,64.53
2024-02-14T04:10:26.256Z,64.42
2024-02-14T04:12:55.885Z,64.53
2024-02-14T04:15:25.821Z,64.94
2024-02-14T04:17:55.574Z,64.11
2024-02-14T04:20:25.353Z,63.81
2024-02-14T04:22:55.003Z,64.03
2024-02-14T04:25:27.233Z,64.11
2024-02-14T04:27:56.893Z,64.09
2024-02-14T04:30:26.526Z,63.82
2024-02-14T04:32:56.296Z,64.59
2024-02-14T04:35:26.477Z,64.77
2024-02-14T04:37:56.720Z,64.83
2024-02-14T04:40:28.941Z,64.68
2024-02-14T04:42:58.553Z,64.14
2024-02-14T04:45:28.219Z,64.51
2024-02-14T04:47:57.941Z,64.75
2024-02-14T04:50:27.671Z,64.96
2024-02-14T04:52:57.915Z,65.19
2024-02-14T04:55:30.530Z,65.28
2024-02-14T04:58:00.438Z,65.92
2024-02-14T05:00:30.115Z,65.12
2024-02-14T05:02:59.917Z,65.29
2024-02-14T05:05:29.993Z,66.38
2024-02-14T05:07:59.720Z,67.13
2024-02-14T05:10:32.146Z,67.49
2024-02-14T05:13:02.424Z,67.11
2024-02-14T05:15:32.096Z,67.51
2024-02-14T05:18:01.980Z,67.45
2024-02-14T05:20:31.767Z,68.18
2024-02-14T05:23:01.881Z,68.21
2024-02-14T05:25:34.202Z,67.91
2024-02-14T05:28:04.212Z,68.25
2024-02-14T05:30:33.941Z,68.33
2024-02-14T05:33:03.729Z,68.43
2024-02-14T05:35:33.559Z,68.75
2024-02-14T05:38:03.827Z,68.58
2024-02-14T05:40:40.753Z,68.16
2024-02-14T05:43:10.979Z,68.37
2024-02-14T05:45:40.628Z,68.07
2024-02-14T05:48:11.025Z,68.16
2024-02-14T05:50:40.745Z,68.56
2024-02-14T05:53:10.362Z,68.12
2024-02-14T05:55:42.604Z,67.25
2024-02-14T05:58:13.134Z,67.44
2024-02-14T06:00:42.990Z,67.85
2024-02-14T06:03:12.823Z,67.71
2024-02-14T06:05:42.646Z,67.36
2024-02-14T06:08:12.348Z,67.44
2024-02-14T06:10:44.724Z,67.35
2024-02-14T06:13:14.405Z,67.97
2024-02-14T06:15:44.242Z,67.98
2024-02-14T06:18:14.217Z,68.37
2024-02-14T06:20:44.024Z,68.17
2024-02-14T06:23:13.727Z,67.53
2024-02-14T06:25:45.973Z,67.86
2024-02-14T06:28:15.670Z,67.73
2024-02-14T06:30:45.331Z,67.65
2024-02-14T06:33:15.124Z,68.31
2024-02-14T06:35:45.248Z,67.97
2024-02-14T06:38:15.147Z,67.93
2024-02-14T06:40:47.691Z,68.54
2024-02-14T06:43:17.379Z,69.03
2024-02-14T06:45:47.493Z,68.51
2024-02-14T06:48:17.391Z,68.21
2024-02-14T06:50:47.259Z,68.63
2024-02-14T06:53:16.910Z,68.71
2024-02-14T06:55:49.146Z,68.76
2024-02-14T06:58:18.883Z,68.83
2024-02-14T07:00:48.602Z,69.10
2024-02-14T07:03:18.361Z,69.88
2024-02-14T07:05:48.444Z,69.74
2024-02-14T07:08:18.500Z,70.48
2024-02-14T07:10:50.824Z,69.98
2024-02-14T07:13:20.582Z,70.17
2024-02-14T07:15:50.206Z,69.74
2024-02-14T07:18:20.975Z,69.83
2024-02-14T07:20:50.708Z,70.13
2024-02-14T07:23:20.832Z,70.10
2024-02-14T07:25:53.050Z,69.69
2024-02-14T07:28:22.668Z,70.71
2024-02-14T07:30:52.319Z,71.04
2024-02-14T07:33:22.194Z,70.73
2024-02-14T07:35:52.311Z,70.98
2024-02-14T07:38:24.300Z,70.66
2024-02-14T07:40:56.656Z,70.61
2024-02-14T07:43:26.275Z,69.97
2024-02-14T07:45:55.952Z,70.37
2024-02-14T07:48:26.316Z,70.28
2024-02-14T07:50:57.290Z,71.04
2024-02-14T07:53:26.974Z,71.20
2024-02-14T07:55:59.227Z,71.42
2024-02-14T07:58:28.933Z,72.88
2024-02-14T08:00:58.610Z,72.39
2024-02-14T08:03:28.443Z,71.46
2024-02-14T08:05:58.168Z,72.87
2024-02-14T08:08:28.861Z,72.80
2024-02-14T08:11:01.356Z,73.33
2024-02-14T08:13:31.029Z,73.67
2024-02-14T08:16:00.738Z,74.32
2024-02-14T08:18:31.399Z,73.77
2024-02-14T08:21:01.131Z,74.51
2024-02-14T08:23:30.802Z,74.21
2024-02-14T08:26:03.069Z,74.31
2024-02-14T08:28:32.720Z,73.83
2024-02-14T08:31:02.360Z,74.37
2024-02-14T08:33:32.123Z,74.29
2024-02-14T08:36:01.875Z,73.74
2024-02-14T08:38:31.586Z,73.24
2024-02-14T08:41:03.898Z,72.98
2024-02-14T08:43:35.062Z,73.63
2024-02-14T08:46:04.492Z,73.44
2024-02-14T08:48:36.511Z,74.12
2024-02-14T08:51:08.049Z,74.49
2024-02-14T08:53:37.814Z,73.65
2024-02-14T08:56:10.725Z,72.79
2024-02-14T08:58:40.428Z,73.12
2024-02-14T09:01:14.979Z,72.75
2024-02-14T09:03:50.152Z,72.98
2024-02-14T09:06:21.775Z,72.80
2024-02-14T09:08:52.160Z,72.87
2024-02-14T09:11:24.761Z,73.33
2024-02-14T09:13:57.263Z,73.36
2024-02-14T09:16:26.882Z,73.14
2024-02-14T09:18:57.441Z,72.23
2024-02-14T09:21:29.163Z,72.04
2024-02-14T09:23:59.504Z,72.20
2024-02-14T09:26:31.813Z,72.63
2024-02-14T09:29:01.594Z,72.74
2024-02-14T09:31:31.296Z,72.30
2024-02-14T09:34:01.129Z,71.61
2024-02-14T09:36:31.454Z,71.68
2024-02-14T09:39:02.367Z,71.39
2024-02-14T09:41:37.368Z,71.10
2024-02-14T09:44:08.496Z,71.47
2024-02-14T09:46:39.122Z,71.16
2024-02-14T09:49:09.172Z,71.31
2024-02-14T09:51:38.888Z,69.97
2024-02-14T09:54:08.706Z,70.11
2024-02-14T09:56:41.010Z,70.59
2024-02-14T09:59:11.197Z,69.56
2024-02-14T10:01:41.013Z,69.34
2024-02-14T10:04:11.585Z,69.36
2024-02-14T10:06:41.328Z,69.26
2024-02-14T10:09:11.586Z,69.25
2024-02-14T10:11:46.121Z,69.02
2024-02-14T10:14:15.922Z,69.01
2024-02-14T10:16:46.901Z,68.71
2024-02-14T10:19:20.202Z,68.53
2024-02-14T10:22:00.217Z,69.65
2024-02-14T10:24:30.245Z,69.02
2024-02-14T10:27:03.110Z,68.45
2024-02-14T10:29:33.594Z,67.55
2024-02-14T10:32:03.358Z,67.03
2024-02-14T10:34:33.120Z,67.13
2024-02-14T10:37:03.330Z,67.57
2024-02-14T10:39:33.021Z,67.55
2024-02-14T10:42:05.348Z,68.30
2024-02-14T10:44:35.078Z,67.81
2024-02-14T10:47:05.445Z,67.84
2024-02-14T10:49:35.698Z,66.37
2024-02-14T10:52:06.276Z,66.94
2024-02-14T10:54:36.375Z,68.37
2024-02-14T10:57:13.290Z,68.04
2024-02-14T10:59:43.618Z,67.89
2024-02-14T11:02:13.690Z,67.78
2024-02-14T11:04:43.338Z,68.25
2024-02-14T11:07:14.578Z,67.51
2024-02-14T11:09:44.525Z,67.15
2024-02-14T11:12:17.035Z,67.15
2024-02-14T11:14:46.947Z,66.81
2024-02-14T11:17:24.726Z,66.48
2024-02-14T11:19:54.973Z,65.61
2024-02-14T11:22:27.460Z,66.91
2024-02-14T11:24:57.433Z,68.13
2024-02-14T11:27:34.541Z,68.73
2024-02-14T11:30:05.445Z,68.98
2024-02-14T11:32:35.962Z,68.71
2024-02-14T11:35:07.592Z,69.35
2024-02-14T11:37:37.686Z,69.91
2024-02-14T11:40:08.682Z,69.26
2024-02-14T11:42:40.717Z,68.57
2024-02-14T11:45:11.389Z,69.21
2024-02-14T11:47:41.137Z,68.84
2024-02-14T11:50:13.035Z,68.04
2024-02-14T11:52:42.695Z,67.98
2024-02-14T11:55:14.569Z,68.17
2024-02-14T11:57:49.762Z,67.82
2024-02-14T12:00:20.167Z,68.26
2024-02-14T12:02:50.911Z,68.11
2024-02-14T12:05:20.789Z,67.60
2024-02-14T12:07:50.557Z,67.53
2024-02-14T12:10:20.227Z,66.96
2024-02-14T12:12:52.473Z,67.08
2024-02-14T12:15:22.378Z,66.87
2024-02-14T12:17:52.785Z,68.72
2024-02-14T12:20:25.498Z,69.21
2024-02-14T12:22:55.125Z,69.40
2024-02-14T12:25:24.777Z,70.64
2024-02-14T12:27:57.494Z,71.17
2024-02-14T12:30:27.217Z,71.06
2024-02-14T12:33:02.815Z,70.92
2024-02-14T12:35:32.551Z,71.34
2024-02-14T12:38:02.532Z,71.81
2024-02-14T12:40:34.054Z,73.54
2024-02-14T12:43:07.055Z,73.72
2024-02-14T12:45:36.719Z,74.11
2024-02-14T12:48:06.694Z,75.48
2024-02-14T12:50:36.486Z,76.75
2024-02-14T12:53:06.169Z,76.89
2024-02-14T12:55:35.785Z,77.99
2024-02-14T12:58:08.289Z,77.52
2024-02-14T13:00:39.461Z,78.16
2024-02-14T13:03:09.281Z,78.52
2024-02-14T13:05:39.026Z,78.21
2024-02-14T13:08:10.369Z,78.07
2024-02-14T13:10:39.992Z,78.83
2024-02-14T13:13:12.513Z,78.28
2024-02-14T13:15:44.185Z,78.98
2024-02-14T13:18:14.114Z,79.66
2024-02-14T13:20:45.771Z,79.43
2024-02-14T13:23:15.996Z,79.52
2024-02-14T13:25:45.786Z,78.35
2024-02-14T13:28:18.123Z,79.06
2024-02-14T13:30:47.846Z,82.05
2024-02-14T13:33:17.690Z,83.33
2024-02-14T13:35:47.466Z,82.88
2024-02-14T13:38:17.860Z,82.46
2024-02-14T13:40:47.644Z,83.87
2024-02-14T13:43:20.113Z,84.18
2024-02-14T13:45:51.609Z,83.38
2024-02-14T13:48:21.401Z,82.89
2024-02-14T13:50:51.128Z,82.26
2024-02-14T13:53:20.811Z,81.92
2024-02-14T13:55:51.622Z,82.87
2024-02-14T13:58:23.843Z,83.73
2024-02-14T14:00:54.044Z,83.21
2024-02-14T14:03:23.672Z,82.81
2024-02-14T14:05:54.146Z,83.11
2024-02-14T14:08:23.848Z,82.58
2024-02-14T14:10:53.503Z,82.63
2024-02-14T14:13:25.683Z,83.96
2024-02-14T14:15:56.684Z,84.31
2024-02-14T14:18:26.167Z,83.74
2024-02-14T14:20:56.393Z,86.22
2024-02-14T14:23:27.688Z,87.00
2024-02-14T14:25:57.833Z,87.56
2024-02-14T14:28:33.607Z,88.59
2024-02-14T14:31:04.049Z,88.56
2024-02-14T14:33:34.165Z,89.85
2024-02-14T14:36:04.736Z,92.39
2024-02-14T14:38:34.601Z,93.53
2024-02-14T14:41:04.254Z,95.07
2024-02-14T14:43:36.494Z,96.68
2024-02-14T14:46:06.159Z,95.46
2024-02-14T14:48:35.878Z,95.26
2024-02-14T14:51:05.797Z,96.50
2024-02-14T14:53:36.644Z,96.29
2024-02-14T14:56:06.685Z,95.15
2024-02-14T14:58:39.082Z,94.12
2024-02-14T15:01:10.526Z,94.95
2024-02-14T15:03:40.345Z,93.31
2024-02-14T15:06:10.359Z,92.52
2024-02-14T15:08:40.807Z,92.27
2024-02-14T15:11:10.478Z,92.77
2024-02-14T15:13:42.727Z,93.06
2024-02-14T15:16:12.493Z,92.76
2024-02-14T15:18:43.304Z,91.48
2024-02-14T15:21:15.102Z,92.11
2024-02-14T15:23:45.498Z,93.32
2024-02-14T15:26:18.465Z,92.86
2024-02-14T15:28:57.449Z,93.48
2024-02-14T15:31:54.774Z,93.41
2024-02-14T15:34:24.605Z,93.50
2024-02-14T15:36:54.414Z,93.74
2024-02-14T15:39:24.114Z,94.18
2024-02-14T15:41:53.802Z,95.99
2024-02-14T15:44:26.070Z,96.14
2024-02-14T15:46:55.743Z,95.77
2024-02-14T15:49:26.288Z,96.01
2024-02-14T15:51:57.254Z,94.33
2024-02-14T15:54:28.023Z,93.08
2024-02-14T15:56:57.694Z,93.10
2024-02-14T15:59:31.250Z,92.86
2024-02-14T16:02:01.440Z,91.61
2024-02-14T16:04:31.095Z,91.21
2024-02-14T16:07:00.806Z,91.71
2024-02-14T16:09:30.507Z,91.76
2024-02-14T16:12:00.371Z,90.61
2024-02-14T16:14:33.634Z,90.11
2024-02-14T16:17:03.371Z,90.15
2024-02-14T16:19:33.037Z,89.87
2024-02-14T16:22:12.308Z,89.90
2024-02-14T16:24:47.659Z,89.65
2024-02-14T16:27:17.683Z,89.41
2024-02-14T16:29:50.081Z,89.00
2024-02-14T16:32:19.762Z,88.65
2024-02-14T16:34:50.032Z,87.95
2024-02-14T16:37:20.844Z,87.75
2024-02-14T16:39:50.843Z,86.96
2024-02-14T16:42:22.029Z,86.26
2024-02-14T16:44:56.093Z,85.74
2024-02-14T16:47:26.597Z,86.32
2024-02-14T16:49:56.921Z,86.13
2024-02-14T16:52:26.566Z,86.04
2024-02-14T16:54:56.256Z,85.86
2024-02-14T16:57:26.153Z,85.39
2024-02-14T16:59:58.490Z,85.27
2024-02-14T17:02:28.423Z,86.09
2024-02-14T17:04:58.180Z,85.87
2024-02-14T17:07:28.274Z,85.44
2024-02-14T17:10:00.004Z,85.64
2024-02-14T17:12:31.728Z,84.74
2024-02-14T17:15:06.980Z,85.12
2024-02-14T17:17:36.921Z,86.11
2024-02-14T17:20:08.434Z,85.30
2024-02-14T17:22:38.646Z,85.25
2024-02-14T17:25:11.149Z,85.30
2024-02-14T17:27:40.797Z,85.21
2024-02-14T17:30:14.028Z,85.90
2024-02-14T17:32:49.756Z,86.19
2024-02-14T17:35:19.979Z,87.31
2024-02-14T17:37:49.652Z,86.66
2024-02-14T17:40:19.518Z,85.85
2024-02-14T17:42:49.130Z,85.69
2024-02-14T17:45:22.489Z,84.56
2024-02-14T17:47:52.283Z,84.21
2024-02-14T17:50:23.814Z,84.22
2024-02-14T17:52:53.462Z,83.72
2024-02-14T17:55:23.268Z,84.39
2024-02-14T17:57:54.606Z,84.83
2024-02-14T18:00:27.850Z,85.25
2024-02-14T18:02:57.638Z,85.29
2024-02-14T18:05:27.364Z,84.97
2024-02-14T18:07:57.015Z,84.62
2024-02-14T18:10:27.528Z,84.52
2024-02-14T18:12:57.956Z,84.85
2024-02-14T18:15:30.400Z,84.11
2024-02-14T18:18:00.124Z,83.92
2024-02-14T18:20:29.974Z,83.42
2024-02-14T18:22:59.628Z,83.58
2024-02-14T18:25:29.267Z,82.95
2024-02-14T18:27:59.321Z,83.14
2024-02-14T18:30:34.318Z,82.89
2024-02-14T18:33:04.264Z,82.87
2024-02-14T18:35:33.940Z,82.75
2024-02-14T18:38:03.652Z,82.57
2024-02-14T18:40:33.425Z,82.54
2024-02-14T18:43:04.334Z,82.68
2024-02-14T18:45:36.551Z,82.55
2024-02-14T18:48:06.945Z,82.62
2024-02-14T18:50:36.864Z,83.04
2024-02-14T18:53:06.616Z,83.22
2024-02-14T18:55:36.285Z,82.78
2024-02-14T18:58:06.267Z,82.61
2024-02-14T19:00:38.801Z,82.69
2024-02-14T19:03:08.508Z,82.71
2024-02-14T19:05:38.677Z,82.91
2024-02-14T19:08:10.370Z,82.62
2024-02-14T19:10:40.150Z,82.93
2024-02-14T19:13:09.859Z,83.27
2024-02-14T19:15:42.341Z,83.57
2024-02-14T19:18:12.061Z,83.76
2024-02-14T19:20:44.746Z,83.94
2024-02-14T19:23:14.378Z,84.03
2024-02-14T19:25:44.046Z,84.01
2024-02-14T19:28:16.701Z,84.02
2024-02-14T19:30:48.979Z,83.50
2024-02-14T19:33:19.107Z,83.64
2024-02-14T19:35:48.939Z,83.78
2024-02-14T19:38:18.623Z,83.65
2024-02-14T19:40:48.370Z,84.07
2024-02-14T19:43:27.985Z,84.74
2024-02-14T19:46:07.199Z,84.90
2024-02-14T19:48:37.264Z,85.06
2024-02-14T19:51:07.477Z,85.89
2024-02-14T19:53:37.289Z,85.83
2024-02-14T19:56:07.347Z,85.89
2024-02-14T19:58:36.978Z,85.80
2024-02-14T20:01:10.562Z,85.50
2024-02-14T20:03:41.980Z,85.83
2024-02-14T20:06:12.002Z,85.74
2024-02-14T20:08:41.798Z,85.14
2024-02-14T20:11:11.666Z,85.51
2024-02-14T20:13:41.527Z,85.54
2024-02-14T20:16:15.574Z,85.60
2024-02-14T20:18:48.127Z,86.33
2024-02-14T20:21:17.924Z,86.70
2024-02-14T20:23:47.734Z,86.63
2024-02-14T20:26:17.719Z,86.65
2024-02-14T20:28:48.183Z,86.42
2024-02-14T20:31:20.651Z,86.43
2024-02-14T20:33:50.334Z,86.64
2024-02-14T20:36:19.970Z,86.58
2024-02-14T20:38:50.983Z,86.85
2024-02-14T20:41:20.358Z,87.08
2024-02-14T20:43:50.022Z,87.04
2024-02-14T20:46:24.876Z,86.75
2024-02-14T20:48:54.962Z,86.72
2024-02-14T20:51:25.289Z,87.01
2024-02-14T20:53:55.040Z,87.28
2024-02-14T20:56:25.371Z,87.83
2024-02-14T20:59:02.033Z,87.49
2024-02-14T21:01:38.405Z,87.26
2024-02-14T21:04:08.284Z,87.21
2024-02-14T21:06:38.250Z,87.24
2024-02-14T21:09:10.549Z,87.63
2024-02-14T21:11:40.659Z,87.96
2024-02-14T21:14:10.366Z,87.68
2024-02-14T21:16:42.583Z,87.44
2024-02-14T21:19:12.301Z,87.84
2024-02-14T21:21:42.093Z,87.73
2024-02-14T21:24:11.881Z,87.95
2024-02-14T21:26:41.737Z,88.28
2024-02-14T21:29:11.425Z,89.76
2024-02-14T21:31:44.015Z,89.31
2024-02-14T21:34:13.885Z,88.87
2024-02-14T21:36:43.658Z,88.89
2024-02-14T21:39:16.368Z,88.87
2024-02-14T21:41:47.500Z,88.90
2024-02-14T21:44:16.976Z,89.24
2024-02-14T21:46:49.275Z,90.58
2024-02-14T21:49:21.692Z,91.34
2024-02-14T21:51:53.823Z,90.59
2024-02-14T21:54:23.693Z,90.49
2024-02-14T21:56:53.652Z,90.16
2024-02-14T21:59:23.301Z,89.96
2024-02-14T22:01:55.677Z,90.24
2024-02-14T22:04:25.297Z,90.23
2024-02-14T22:06:55.957Z,89.88
2024-02-14T22:09:25.866Z,89.82
2024-02-14T22:11:55.513Z,89.66
2024-02-14T22:14:25.150Z,89.37
2024-02-14T22:16:59.620Z,88.86
2024-02-14T22:19:29.339Z,91.18
2024-02-14T22:21:59.001Z,91.11
2024-02-14T22:24:30.081Z,90.84
2024-02-14T22:26:59.571Z,90.82
2024-02-14T22:29:31.152Z,90.94
2024-02-14T22:32:05.329Z,91.51
2024-02-14T22:34:35.082Z,90.01
2024-02-14T22:37:05.184Z,89.76
2024-02-14T22:39:34.863Z,89.75
2024-02-14T22:42:05.516Z,89.67
2024-02-14T22:44:35.345Z,89.48
2024-02-14T22:47:08.710Z,89.80
2024-02-14T22:49:38.629Z,89.91
2024-02-14T22:52:09.047Z,89.42
2024-02-14T22:54:38.949Z,90.15
2024-02-14T22:57:09.957Z,90.22
2024-02-14T22:59:39.559Z,90.45
2024-02-14T23:02:13.327Z,91.04
2024-02-14T23:04:42.966Z,90.51
2024-02-14T23:07:12.828Z,89.70
2024-02-14T23:09:43.059Z,89.45
2024-02-14T23:12:13.218Z,89.03
2024-02-14T23:14:42.859Z,89.08
2024-02-14T23:17:15.163Z,88.44
2024-02-14T23:19:44.866Z,88.60
2024-02-14T23:22:15.398Z,88.56
2024-02-14T23:24:45.020Z,88.83
2024-02-14T23:27:14.764Z,88.73
2024-02-14T23:29:44.472Z,89.53
2024-02-14T23:32:16.777Z,88.84
2024-02-14T23:34:46.459Z,88.95
2024-02-14T23:37:16.123Z,88.59
2024-02-14T23:39:45.760Z,88.67
2024-02-14T23:42:15.419Z,88.20
2024-02-14T23:44:45.327Z,88.26
2024-02-14T23:47:17.811Z,87.93
2024-02-14T23:49:47.463Z,88.10
2024-02-14T23:52:17.609Z,88.25
2024-02-14T23:54:47.248Z,88.20
2024-02-14T23:57:16.927Z,87.97
2024-02-14T23:59:46.803Z,88.18
